createdAt,value
2019-04-05T00:01:32.057Z,9.97
2019-04-05T00:04:02.767Z,10.40
2019-04-05T00:06:33.781Z,10.73
2019-04-05T00:09:06.593Z,10.83
2019-04-05T00:11:37.465Z,9.33
2019-04-05T00:14:08.560Z,10.80
2019-04-05T00:16:41.058Z,10.27
2019-04-05T00:19:11.885Z,10.53
2019-04-05T00:21:42.606Z,11.03
2019-04-05T00:24:13.556Z,12.17
2019-04-05T00:26:44.655Z,10.83
2019-04-05T00:29:17.510Z,10.90
2019-04-05T00:31:49.675Z,9.43
2019-04-05T00:34:22.595Z,11.50
2019-04-05T00:36:53.836Z,11.60
2019-04-05T00:39:23.618Z,11.40
2019-04-05T00:41:54.711Z,10.97
2019-04-05T00:44:25.497Z,11.90
2019-04-05T00:46:55.237Z,10.77
2019-04-05T00:49:26.279Z,12.57
2019-04-05T00:51:56.202Z,12.97
2019-04-05T00:54:26.042Z,12.47
2019-04-05T00:56:55.754Z,10.70
2019-04-05T00:59:26.825Z,12.87
2019-04-05T01:01:58.000Z,12.73
2019-04-05T01:04:29.133Z,12.60
2019-04-05T01:07:00.389Z,11.50
2019-04-05T01:09:32.659Z,12.93
2019-04-05T01:12:04.969Z,12.60
2019-04-05T01:14:36.836Z,12.20
2019-04-05T01:17:07.545Z,12.97
2019-04-05T01:19:45.035Z,12.47
2019-04-05T01:22:16.325Z,13.37
2019-04-05T01:24:46.264Z,14.77
2019-04-05T01:27:16.496Z,14.17
2019-04-05T01:29:46.333Z,14.20
2019-04-05T01:32:16.421Z,12.50
2019-04-05T01:34:46.317Z,14.47
2019-04-05T01:37:17.054Z,14.27
2019-04-05T01:39:47.214Z,13.97
2019-04-05T01:42:19.919Z,13.03
2019-04-05T01:44:52.014Z,15.00
2019-04-05T01:47:22.190Z,14.03
2019-04-05T01:49:53.349Z,12.13
2019-04-05T01:52:24.086Z,14.37
2019-04-05T01:54:58.793Z,14.23
2019-04-05T01:57:29.565Z,13.77
2019-04-05T01:59:59.254Z,14.37
2019-04-05T02:02:29.989Z,13.60
2019-04-05T02:05:01.078Z,13.73
2019-04-05T02:07:32.377Z,14.50
2019-04-05T02:10:03.196Z,12.03
2019-04-05T02:12:34.196Z,14.90
2019-04-05T02:15:11.097Z,14.30
2019-04-05T02:17:40.969Z,14.23
2019-04-05T02:20:14.218Z,14.30
2019-04-05T02:22:46.186Z,13.67
2019-04-05T02:25:16.387Z,15.00
2019-04-05T02:27:47.506Z,15.53
2019-04-05T02:30:20.533Z,16.67
2019-04-05T02:32:51.937Z,15.53
2019-04-05T02:35:21.855Z,16.20
2019-04-05T02:37:52.706Z,14.50
2019-04-05T02:40:23.190Z,16.90
2019-04-05T02:42:54.937Z,15.20
2019-04-05T02:45:27.755Z,16.83
2019-04-05T02:48:02.731Z,17.37
2019-04-05T02:50:35.465Z,16.50
2019-04-05T02:53:07.848Z,14.67
2019-04-05T02:55:40.437Z,16.90
2019-04-05T02:58:11.900Z,16.60
2019-04-05T03:00:43.396Z,17.50
2019-04-05T03:03:15.242Z,14.50
2019-04-05T03:05:46.202Z,16.37
2019-04-05T03:08:18.205Z,16.47
2019-04-05T03:10:50.635Z,13.50
2019-04-05T03:13:21.733Z,16.23
2019-04-05T03:15:54.589Z,16.33
2019-04-05T03:18:27.057Z,15.37
2019-04-05T03:21:01.137Z,15.73
2019-04-05T03:23:33.290Z,15.80
2019-04-05T03:26:07.383Z,15.67
2019-04-05T03:28:41.174Z,14.40
2019-04-05T03:31:11.109Z,16.77
2019-04-05T03:33:40.907Z,16.33
2019-04-05T03:36:12.230Z,15.77
2019-04-05T03:38:43.138Z,16.97
2019-04-05T03:41:16.918Z,16.60
2019-04-05T03:43:49.487Z,14.57
2019-04-05T03:46:19.807Z,16.97
2019-04-05T03:48:52.626Z,16.73
2019-04-05T03:51:23.351Z,17.57
2019-04-05T03:53:53.100Z,18.43
2019-04-05T03:56:24.157Z,17.83
2019-04-05T03:58:56.233Z,16.80
2019-04-05T04:01:27.365Z,17.53
2019-04-05T04:03:57.225Z,18.17
2019-04-05T04:06:28.202Z,18.87
2019-04-05T04:08:59.314Z,14.93
2019-04-05T04:11:30.012Z,18.90
2019-04-05T04:14:01.657Z,16.23
2019-04-05T04:16:31.916Z,19.17
2019-04-05T04:19:02.678Z,16.20
2019-04-05T04:21:45.760Z,17.77
2019-04-05T04:24:16.477Z,16.20
2019-04-05T04:26:47.301Z,18.90
2019-04-05T04:29:18.971Z,18.80
2019-04-05T04:31:51.019Z,19.00
2019-04-05T04:34:22.135Z,15.13
2019-04-05T04:36:52.962Z,17.60
2019-04-05T04:39:24.822Z,18.30
2019-04-05T04:41:58.088Z,15.90
2019-04-05T04:44:30.274Z,17.40
2019-04-05T04:47:03.086Z,18.53
2019-04-05T04:49:35.797Z,18.70
2019-04-05T04:52:07.116Z,19.27
2019-04-05T04:54:37.186Z,18.77
2019-04-05T04:57:10.670Z,16.20
2019-04-05T04:59:41.453Z,17.63
2019-04-05T05:02:12.405Z,16.07
2019-04-05T05:04:44.441Z,18.97
2019-04-05T05:07:14.449Z,18.13
2019-04-05T05:09:44.441Z,16.63
2019-04-05T05:12:15.077Z,19.90
2019-04-05T05:14:46.801Z,17.13
2019-04-05T05:17:16.489Z,19.43
2019-04-05T05:19:46.674Z,16.70
2019-04-05T05:22:16.191Z,18.57
2019-04-05T05:24:48.622Z,19.30
2019-04-05T05:27:18.529Z,16.07
2019-04-05T05:29:51.246Z,18.43
2019-04-05T05:32:22.714Z,20.13
2019-04-05T05:35:01.879Z,19.50
2019-04-05T05:37:27.291Z,18.13
2019-04-05T05:39:56.829Z,19.17
2019-04-05T05:42:26.525Z,19.07
2019-04-05T05:44:56.385Z,19.37
2019-04-05T05:47:26.157Z,19.10
2019-04-05T05:49:58.053Z,17.77
2019-04-05T05:52:28.317Z,19.10
2019-04-05T05:54:58.508Z,19.87
2019-04-05T05:57:29.268Z,20.87
2019-04-05T06:00:01.285Z,20.13
2019-04-05T06:02:31.216Z,19.20
2019-04-05T06:05:01.288Z,20.70
2019-04-05T06:07:32.146Z,20.10
2019-04-05T06:10:03.272Z,18.07
2019-04-05T06:12:34.513Z,20.30
2019-04-05T06:15:05.622Z,18.03
2019-04-05T06:17:34.618Z,20.53
2019-04-05T06:20:07.334Z,20.77
2019-04-05T06:22:37.280Z,17.67
2019-04-05T06:25:08.256Z,19.80
2019-04-05T06:27:39.262Z,17.60
2019-04-05T06:30:12.692Z,20.77
2019-04-05T06:32:43.373Z,19.57
2019-04-05T06:35:16.207Z,19.20
2019-04-05T06:37:46.977Z,18.67
2019-04-05T06:40:17.161Z,16.03
2019-04-05T06:42:48.032Z,19.40
2019-04-05T06:45:18.330Z,18.73
2019-04-05T06:47:52.005Z,18.90
2019-04-05T06:50:22.169Z,18.70
2019-04-05T06:52:53.294Z,18.53
2019-04-05T06:55:26.933Z,17.80
2019-04-05T06:57:59.236Z,17.97
2019-04-05T07:00:31.650Z,18.80
2019-04-05T07:03:02.749Z,18.30
2019-04-05T07:05:36.102Z,16.37
2019-04-05T07:08:07.318Z,19.47
2019-04-05T07:10:38.168Z,18.17
2019-04-05T07:13:09.504Z,18.57
2019-04-05T07:15:39.401Z,16.53
2019-04-05T07:18:10.645Z,12.17
2019-04-05T07:20:42.430Z,23.67
2019-04-05T07:23:12.178Z,14.63
2019-04-05T07:25:46.123Z,14.33
2019-04-05T07:28:16.261Z,13.97
2019-04-05T07:30:49.238Z,12.00
2019-04-05T07:33:20.361Z,13.43
2019-04-05T07:35:51.342Z,13.17
2019-04-05T07:38:22.534Z,13.50
2019-04-05T07:40:52.437Z,13.90
2019-04-05T07:43:22.517Z,13.63
2019-04-05T07:45:54.404Z,14.43
2019-04-05T07:48:24.176Z,15.63
2019-04-05T07:50:54.492Z,15.17
2019-04-05T07:53:25.218Z,15.07
2019-04-05T07:55:54.965Z,13.10
2019-04-05T07:58:26.446Z,13.43
2019-04-05T08:00:57.464Z,14.43
2019-04-05T08:03:28.217Z,12.10
2019-04-05T08:05:58.361Z,13.87
2019-04-05T08:08:34.848Z,14.30
2019-04-05T08:11:06.585Z,15.27
2019-04-05T08:13:39.982Z,15.40
2019-04-05T08:16:10.217Z,15.27
2019-04-05T08:18:41.257Z,16.47
2019-04-05T08:21:11.934Z,14.70
2019-04-05T08:23:42.588Z,16.77
2019-04-05T08:26:14.362Z,16.83
2019-04-05T08:28:45.209Z,17.33
2019-04-05T08:31:15.918Z,17.40
2019-04-05T08:33:46.951Z,18.37
2019-04-05T08:36:16.392Z,17.77
2019-04-05T08:38:47.561Z,16.33
2019-04-05T08:41:18.393Z,17.70
2019-04-05T08:43:48.445Z,17.57
2019-04-05T08:46:19.385Z,15.93
2019-04-05T08:48:52.332Z,17.50
2019-04-05T08:51:22.900Z,16.53
2019-04-05T08:53:53.617Z,17.50
2019-04-05T08:56:26.062Z,19.43
2019-04-05T08:58:57.063Z,17.27
2019-04-05T09:01:27.040Z,17.07
2019-04-05T09:03:58.545Z,18.37
2019-04-05T09:06:29.302Z,15.30
2019-04-05T09:09:00.358Z,17.57
2019-04-05T09:11:40.442Z,16.63
2019-04-05T09:14:10.633Z,16.20
2019-04-05T09:16:40.537Z,17.00
2019-04-05T09:19:23.100Z,14.73
2019-04-05T09:21:43.574Z,17.50
2019-04-05T09:24:13.334Z,15.03
2019-04-05T09:26:43.121Z,14.93
2019-04-05T09:29:12.886Z,13.03
2019-04-05T09:31:43.503Z,15.07
2019-04-05T09:34:14.245Z,13.70
2019-04-05T09:36:45.332Z,15.50
2019-04-05T09:39:15.941Z,15.13
2019-04-05T09:41:47.234Z,15.13
2019-04-05T09:44:17.101Z,15.97
2019-04-05T09:46:51.006Z,14.73
2019-04-05T09:49:21.025Z,15.77
2019-04-05T09:51:52.675Z,15.77
2019-04-05T09:54:23.421Z,15.80
2019-04-05T09:56:53.257Z,12.57
2019-04-05T09:59:24.045Z,14.07
2019-04-05T10:01:54.205Z,13.40
2019-04-05T10:04:25.066Z,15.40
2019-04-05T10:06:56.089Z,15.00
2019-04-05T10:09:27.328Z,15.20
2019-04-05T10:11:59.085Z,14.23
2019-04-05T10:14:28.658Z,17.70
2019-04-05T10:17:00.505Z,17.50
2019-04-05T10:19:31.952Z,17.97
2019-04-05T10:22:03.115Z,19.93
2019-04-05T10:24:33.446Z,19.80
2019-04-05T10:27:04.118Z,18.00
2019-04-05T10:29:35.607Z,17.17
2019-04-05T10:32:06.281Z,15.13
2019-04-05T10:34:36.362Z,16.53
2019-04-05T10:37:09.231Z,16.07
2019-04-05T10:39:40.881Z,16.53
2019-04-05T10:42:22.631Z,14.40
2019-04-05T10:44:52.521Z,15.83
2019-04-05T10:47:23.571Z,17.63
2019-04-05T10:50:02.911Z,16.47
2019-04-05T10:52:27.191Z,12.87
2019-04-05T10:54:58.042Z,15.33
2019-04-05T10:57:31.053Z,15.90
2019-04-05T11:00:01.213Z,14.77
2019-04-05T11:02:35.405Z,15.10
2019-04-05T11:05:08.713Z,13.90
2019-04-05T11:07:39.589Z,14.73
2019-04-05T11:10:09.586Z,12.00
2019-04-05T11:12:40.854Z,10.80
2019-04-05T11:15:14.953Z,11.53
2019-04-05T11:17:46.477Z,11.17
2019-04-05T11:20:21.766Z,11.60
2019-04-05T11:22:51.426Z,10.10
2019-04-05T11:25:22.602Z,11.63
2019-04-05T11:27:53.369Z,11.57
2019-04-05T11:30:27.035Z,13.03
2019-04-05T11:32:57.277Z,11.93
2019-04-05T11:35:27.575Z,9.87
2019-04-05T11:37:58.736Z,9.80
2019-04-05T11:40:31.437Z,9.97
2019-04-05T11:43:04.170Z,10.57
2019-04-05T11:45:36.293Z,11.20
2019-04-05T11:48:10.602Z,10.93
2019-04-05T11:50:41.429Z,10.63
2019-04-05T11:53:12.112Z,10.00
2019-04-05T11:55:46.183Z,8.60
2019-04-05T11:58:14.207Z,10.20
2019-04-05T12:00:57.768Z,10.27
2019-04-05T12:03:31.801Z,10.77
2019-04-05T12:06:03.503Z,11.50
2019-04-05T12:08:34.217Z,8.90
2019-04-05T12:11:06.250Z,10.87
2019-04-05T12:13:38.444Z,11.53
2019-04-05T12:16:10.571Z,10.87
2019-04-05T12:18:44.238Z,12.23
2019-04-05T12:21:15.545Z,10.77
2019-04-05T12:23:46.775Z,12.63
2019-04-05T12:26:18.513Z,10.40
2019-04-05T12:28:48.306Z,12.70
2019-04-05T12:31:18.090Z,11.30
2019-04-05T12:34:00.478Z,12.37
2019-04-05T12:36:31.431Z,10.70
2019-04-05T12:39:04.056Z,11.90
2019-04-05T12:41:34.759Z,12.30
2019-04-05T12:44:05.454Z,12.13
2019-04-05T12:46:36.288Z,12.07
2019-04-05T12:49:07.030Z,10.70
2019-04-05T12:51:38.435Z,13.03
2019-04-05T12:54:09.166Z,10.43
2019-04-05T12:56:40.112Z,11.43
2019-04-05T12:59:11.229Z,11.20
2019-04-05T13:01:43.550Z,11.50
2019-04-05T13:04:15.208Z,11.20
2019-04-05T13:06:45.483Z,13.43
2019-04-05T13:09:17.484Z,10.83
2019-04-05T13:11:48.392Z,13.07
2019-04-05T13:14:19.330Z,12.53
2019-04-05T13:16:49.638Z,11.07
2019-04-05T13:19:21.584Z,12.03
2019-04-05T13:21:51.373Z,10.77
2019-04-05T13:24:22.013Z,13.37
2019-04-05T13:26:52.993Z,13.47
2019-04-05T13:29:23.203Z,13.73
2019-04-05T13:31:54.321Z,14.23
2019-04-05T13:34:25.993Z,14.77
2019-04-05T13:36:59.269Z,14.33
2019-04-05T13:39:30.695Z,14.20
2019-04-05T13:42:03.505Z,12.30
2019-04-05T13:44:33.480Z,13.50
2019-04-05T13:47:08.080Z,12.30
2019-04-05T13:49:40.639Z,14.17
2019-04-05T13:52:13.875Z,13.23
2019-04-05T13:54:44.651Z,15.53
2019-04-05T13:57:17.036Z,15.80
2019-04-05T13:59:48.650Z,13.20
2019-04-05T14:02:21.178Z,15.03
2019-04-05T14:04:53.846Z,13.70
2019-04-05T14:07:25.745Z,15.40
2019-04-05T14:09:56.833Z,15.77
2019-04-05T14:12:27.675Z,14.17
2019-04-05T14:15:01.578Z,17.07
2019-04-05T14:17:31.925Z,15.50
2019-04-05T14:20:09.057Z,18.13
2019-04-05T14:22:40.470Z,16.07
2019-04-05T14:25:12.967Z,17.77
2019-04-05T14:27:43.009Z,16.30
2019-04-05T14:30:15.441Z,19.17
2019-04-05T14:32:45.633Z,16.77
2019-04-05T14:35:16.978Z,20.17
2019-04-05T14:37:48.053Z,19.27
2019-04-05T14:40:19.014Z,20.33
2019-04-05T14:42:50.251Z,17.83
2019-04-05T14:45:21.231Z,18.63
2019-04-05T14:47:52.175Z,16.13
2019-04-05T14:50:22.688Z,19.30
2019-04-05T14:52:53.436Z,16.43
2019-04-05T14:55:24.167Z,18.17
2019-04-05T14:57:54.927Z,15.10
2019-04-05T15:00:25.065Z,18.43
2019-04-05T15:02:56.062Z,17.90
2019-04-05T15:05:28.323Z,20.60
2019-04-05T15:07:59.095Z,18.37
2019-04-05T15:10:30.195Z,15.97
2019-04-05T15:13:01.992Z,18.00
2019-04-05T15:15:33.550Z,17.93
2019-04-05T15:18:05.229Z,15.77
2019-04-05T15:20:37.276Z,18.60
2019-04-05T15:23:09.542Z,15.80
2019-04-05T15:25:42.190Z,17.53
2019-04-05T15:28:12.333Z,15.00
2019-04-05T15:30:42.661Z,16.37
2019-04-05T15:33:12.913Z,14.00
2019-04-05T15:35:44.091Z,16.37
2019-04-05T15:38:14.930Z,13.27
2019-04-05T15:40:45.565Z,15.60
2019-04-05T15:43:15.345Z,12.57
2019-04-05T15:45:48.435Z,15.30
2019-04-05T15:48:20.495Z,13.93
2019-04-05T15:50:55.586Z,15.70
2019-04-05T15:53:24.729Z,15.67
2019-04-05T15:55:54.967Z,17.07
2019-04-05T15:58:27.875Z,19.07
2019-04-05T16:00:59.219Z,21.70
2019-04-05T16:03:32.124Z,19.57
2019-04-05T16:06:02.113Z,20.63
2019-04-05T16:08:32.969Z,19.23
2019-04-05T16:11:05.578Z,20.47
2019-04-05T16:13:37.497Z,21.03
2019-04-05T16:16:07.809Z,18.60
2019-04-05T16:18:38.099Z,20.50
2019-04-05T16:21:08.847Z,18.13
2019-04-05T16:23:40.505Z,19.37
2019-04-05T16:26:12.359Z,20.37
2019-04-05T16:28:43.604Z,21.60
2019-04-05T16:31:14.817Z,17.87
2019-04-05T16:33:44.717Z,20.30
2019-04-05T16:36:16.509Z,19.10
2019-04-05T16:38:47.631Z,18.37
2019-04-05T16:41:18.364Z,20.03
2019-04-05T16:43:49.590Z,20.83
2019-04-05T16:46:22.397Z,21.97
2019-04-05T16:48:53.138Z,20.67
2019-04-05T16:51:24.149Z,17.67
2019-04-05T16:54:05.076Z,18.67
2019-04-05T16:56:36.097Z,18.50
2019-04-05T16:59:07.149Z,16.50
2019-04-05T17:01:38.307Z,16.20
2019-04-05T17:04:09.438Z,15.63
2019-04-05T17:06:40.277Z,16.10
2019-04-05T17:09:11.300Z,14.30
2019-04-05T17:11:42.713Z,13.60
2019-04-05T17:14:13.557Z,13.03
2019-04-05T17:16:45.048Z,13.10
2019-04-05T17:19:15.678Z,13.77
2019-04-05T17:21:47.516Z,13.67
2019-04-05T17:24:18.233Z,13.57
2019-04-05T17:26:48.852Z,14.00
2019-04-05T17:29:19.763Z,14.00
2019-04-05T17:31:51.506Z,11.93
2019-04-05T17:34:21.586Z,14.53
2019-04-05T17:36:52.726Z,13.83
2019-04-05T17:39:25.672Z,15.20
2019-04-05T17:41:58.585Z,15.13
2019-04-05T17:44:29.689Z,14.53
2019-04-05T17:47:00.522Z,14.83
2019-04-05T17:49:34.191Z,12.43
2019-04-05T17:52:09.299Z,13.70
2019-04-05T17:54:40.754Z,14.13
2019-04-05T17:57:11.783Z,13.37
2019-04-05T17:59:42.803Z,14.10
2019-04-05T18:02:15.215Z,14.83
2019-04-05T18:04:45.915Z,15.60
2019-04-05T18:07:15.982Z,14.87
2019-04-05T18:09:48.816Z,17.83
2019-04-05T18:12:20.101Z,19.10
2019-04-05T18:14:50.337Z,16.93
2019-04-05T18:17:20.236Z,18.50
2019-04-05T18:19:49.552Z,20.23
2019-04-05T18:22:18.981Z,19.73
2019-04-05T18:24:48.319Z,17.57
2019-04-05T18:27:18.211Z,19.70
2019-04-05T18:29:47.185Z,19.37
2019-04-05T18:32:18.987Z,18.00
2019-04-05T18:34:49.137Z,19.13
2019-04-05T18:37:19.088Z,19.00
2019-04-05T18:39:50.201Z,20.20
2019-04-05T18:42:21.178Z,19.83
2019-04-05T18:44:52.046Z,22.33
2019-04-05T18:47:22.270Z,20.67
2019-04-05T18:50:02.909Z,22.57
2019-04-05T18:52:25.860Z,25.20
2019-04-05T18:54:58.940Z,23.80
2019-04-05T18:57:30.637Z,24.47
2019-04-05T19:00:01.723Z,23.87
2019-04-05T19:02:42.886Z,26.90
2019-04-05T19:05:13.965Z,24.83
2019-04-05T19:07:44.110Z,26.53
2019-04-05T19:10:14.109Z,24.23
2019-04-05T19:12:45.174Z,26.10
2019-04-05T19:15:17.742Z,23.43
2019-04-05T19:17:47.646Z,24.97
2019-04-05T19:20:27.413Z,25.03
2019-04-05T19:23:00.268Z,26.40
2019-04-05T19:25:32.020Z,26.37
2019-04-05T19:28:01.776Z,26.47
2019-04-05T19:48:30.881Z,24.90
2019-04-05T19:50:56.569Z,25.03
2019-04-05T19:53:26.821Z,25.33
2019-04-05T19:55:56.709Z,23.30
2019-04-05T19:58:30.081Z,24.70
2019-04-05T20:01:01.010Z,26.27
2019-04-05T20:03:32.190Z,25.17
2019-04-05T20:06:05.136Z,22.30
2019-04-05T20:08:37.774Z,26.30
2019-04-05T20:11:07.914Z,25.70
2019-04-05T20:13:37.807Z,23.97
2019-04-05T20:16:09.686Z,24.50
2019-04-05T20:18:40.381Z,26.37
2019-04-05T20:21:11.035Z,25.77
2019-04-05T20:23:47.458Z,25.83
2019-04-05T20:26:14.029Z,25.63
2019-04-05T20:28:45.154Z,24.33
2019-04-05T20:31:15.025Z,27.03
2019-04-05T20:33:46.044Z,26.90
2019-04-05T20:36:16.882Z,24.30
2019-04-05T20:38:46.959Z,26.27
2019-04-05T20:41:18.125Z,26.20
2019-04-05T20:43:50.649Z,24.30
2019-04-05T20:46:20.789Z,26.57
2019-04-05T20:48:51.552Z,27.80
2019-04-05T20:51:21.842Z,27.60
2019-04-05T20:53:53.982Z,28.57
2019-04-05T20:56:24.716Z,26.60
2019-04-05T20:58:55.654Z,28.63
2019-04-05T21:01:26.695Z,28.93
2019-04-05T21:03:58.879Z,28.87
2019-04-05T21:06:33.158Z,29.10
2019-04-05T21:09:05.412Z,26.70
2019-04-05T21:11:35.297Z,28.43
2019-04-05T21:14:06.988Z,29.27
2019-04-05T21:16:38.646Z,27.63
2019-04-05T21:19:09.567Z,29.13
2019-04-05T21:21:41.238Z,28.27
2019-04-05T21:24:11.390Z,26.17
2019-04-05T21:26:42.226Z,29.67
2019-04-05T21:29:12.005Z,27.33
2019-04-05T21:31:43.870Z,28.27
2019-04-05T21:34:14.665Z,29.77
2019-04-05T21:36:46.445Z,28.90
2019-04-05T21:39:17.685Z,27.03
2019-04-05T21:41:47.891Z,28.87
2019-04-05T21:44:18.651Z,29.77
2019-04-05T21:46:48.403Z,28.97
2019-04-05T21:49:19.109Z,29.07
2019-04-05T21:51:50.075Z,28.67
2019-04-05T21:54:19.832Z,27.63
2019-04-05T21:56:50.477Z,28.27
2019-04-05T21:59:21.554Z,29.30
2019-04-05T22:01:51.865Z,28.20
2019-04-05T22:04:23.033Z,28.10
2019-04-05T22:06:54.129Z,27.13
2019-04-05T22:09:25.003Z,29.73
2019-04-05T22:11:55.717Z,29.17
2019-04-05T22:14:26.361Z,28.03
2019-04-05T22:17:00.718Z,30.03
2019-04-05T22:19:30.570Z,29.93
2019-04-05T22:22:01.637Z,29.57
2019-04-05T22:24:32.355Z,27.07
2019-04-05T22:27:03.966Z,29.13
2019-04-05T22:29:34.993Z,30.17
2019-04-05T22:32:07.633Z,29.10
2019-04-05T22:34:38.931Z,29.83
2019-04-05T22:37:08.850Z,26.73
2019-04-05T22:39:39.949Z,30.03
2019-04-05T22:42:09.980Z,32.07
2019-04-05T22:44:41.502Z,30.77
2019-04-05T22:47:14.354Z,28.23
2019-04-05T22:49:44.501Z,31.93
2019-04-05T22:52:15.338Z,31.30
2019-04-05T22:54:47.104Z,31.60
2019-04-05T22:57:18.155Z,30.87
2019-04-05T22:59:48.030Z,28.70
2019-04-05T23:02:17.809Z,30.43
2019-04-05T23:04:48.116Z,28.63
2019-04-05T23:07:21.935Z,29.30
2019-04-05T23:09:53.593Z,30.43
2019-04-05T23:12:26.164Z,32.03
2019-04-05T23:14:57.259Z,30.87
2019-04-05T23:17:27.100Z,31.67
2019-04-05T23:19:57.441Z,32.30
2019-04-05T23:22:29.810Z,32.93
2019-04-05T23:24:59.814Z,32.83
2019-04-05T23:27:29.257Z,33.47
2019-04-05T23:29:59.497Z,33.17
2019-04-05T23:32:28.616Z,32.93
2019-04-05T23:34:59.025Z,31.07
2019-04-05T23:37:30.249Z,34.47
2019-04-05T23:40:01.094Z,33.00
2019-04-05T23:42:32.248Z,29.53
2019-04-05T23:45:04.654Z,33.07
2019-04-05T23:47:37.036Z,34.37
2019-04-05T23:50:06.894Z,33.57
2019-04-05T23:52:38.793Z,31.53
2019-04-05T23:55:08.961Z,34.77
2019-04-05T23:57:39.707Z,34.27
